Time;durP1;ratioP1;P1;durP2;ratioP2;P2;SDS_P1;SDS_P2;PMS_P1;PMS_P2;Temp;Humidity;BMP_temperature;BMP_pressure;BME280_temperature;BME280_humidity;BME280_pressure;Samples;Min_cycle;Max_cycle;Signal;HPM_P1;HPM_P2
2022/12/04 00:00:29;;;;;;;10.27;8.03;;;;;;;7.43;68.75;95797.38;5033407;28;20322;-64
2022/12/04 00:02:54;;;;;;;8.47;7.63;;;;;;;7.36;68.58;95784.88;5017681;28;20252;-64
2022/12/04 00:05:20;;;;;;;8.47;7.53;;;;;;;7.30;68.79;95796.63;5034946;28;20182;-63
2022/12/04 00:07:45;;;;;;;8.30;7.50;;;;;;;7.44;68.51;95806.91;5022504;28;20245;-64
2022/12/04 00:10:11;;;;;;;9.07;8.17;;;;;;;7.40;68.63;95802.81;5035860;28;20225;-64
2022/12/04 00:12:36;;;;;;;9.03;7.30;;;;;;;7.39;68.78;95806.41;5033856;28;20288;-65
2022/12/04 00:15:02;;;;;;;8.57;7.77;;;;;;;7.37;68.60;95797.81;5025678;28;20217;-65
2022/12/04 00:17:27;;;;;;;8.47;7.47;;;;;;;7.44;68.66;95813.91;5027283;28;20186;-66
2022/12/04 00:19:53;;;;;;;9.00;8.20;;;;;;;7.37;68.86;95813.53;5026508;28;20225;-65
2022/12/04 00:22:21;;;;;;;8.43;7.63;;;;;;;7.38;68.48;95815.22;5023382;28;20257;-66
2022/12/04 00:24:47;;;;;;;8.90;8.03;;;;;;;7.38;68.68;95819.63;5021727;28;20279;-66
2022/12/04 00:27:12;;;;;;;8.13;7.43;;;;;;;7.15;69.27;95821.28;5021975;28;20222;-66
2022/12/04 00:29:38;;;;;;;8.50;7.77;;;;;;;7.28;69.13;95822.88;5023738;28;20186;-66
2022/12/04 00:32:03;;;;;;;9.63;7.70;;;;;;;7.33;69.07;95816.50;5018734;28;20251;-65
2022/12/04 00:34:29;;;;;;;8.00;7.20;;;;;;;7.37;68.82;95810.91;5036153;28;20226;-66
2022/12/04 00:36:54;;;;;;;8.90;8.00;;;;;;;7.29;69.14;95821.91;5042359;28;20230;-65
2022/12/04 00:39:20;;;;;;;9.03;8.13;;;;;;;7.39;68.96;95822.09;5040343;28;20222;-66
2022/12/04 00:41:45;;;;;;;9.37;8.47;;;;;;;7.36;68.63;95814.47;5040096;28;20229;-65
2022/12/04 00:44:10;;;;;;;8.70;7.90;;;;;;;7.24;68.99;95813.59;5043942;28;20265;-64
2022/12/04 00:46:36;;;;;;;9.30;8.17;;;;;;;7.26;69.07;95822.16;5036583;28;20244;-65
2022/12/04 00:49:01;;;;;;;8.47;7.60;;;;;;;7.29;68.99;95821.09;5041617;28;20292;-65
2022/12/04 00:51:27;;;;;;;9.03;8.03;;;;;;;7.38;68.51;95819.63;5040889;28;20318;-66
2022/12/04 00:53:53;;;;;;;8.20;7.50;;;;;;;7.42;68.36;95814.00;5043480;28;20216;-65
2022/12/04 00:56:22;;;;;;;8.57;7.67;;;;;;;7.29;68.86;95821.09;5033800;28;20248;-65
2022/12/04 00:58:52;;;;;;;8.37;7.53;;;;;;;7.22;69.18;95822.50;5056419;28;20275;-65
2022/12/04 01:01:19;;;;;;;9.10;7.77;;;;;;;7.35;68.72;95823.28;5035144;28;20257;-65
2022/12/04 01:03:45;;;;;;;7.70;6.90;;;;;;;7.32;68.68;95826.09;5042598;28;20325;-65
2022/12/04 01:06:23;;;;;;;8.43;7.63;;;;;;;7.26;68.73;95827.38;5037253;28;20225;-66
2022/12/04 01:08:50;;;;;;;8.80;8.00;;;;;;;7.27;68.91;95822.97;5035511;28;20189;-65
2022/12/04 01:11:18;;;;;;;8.03;7.27;;;;;;;7.23;68.87;95816.31;5038810;28;20259;-65
2022/12/04 01:13:44;;;;;;;8.10;7.30;;;;;;;7.20;68.82;95816.56;5038286;28;20217;-65
2022/12/04 01:16:20;;;;;;;7.33;6.73;;;;;;;7.13;69.33;95815.31;5036904;28;20257;-65
2022/12/04 01:18:46;;;;;;;8.03;7.33;;;;;;;7.19;68.96;95815.72;5038993;28;20227;-65
2022/12/04 01:21:12;;;;;;;7.03;6.37;;;;;;;7.18;68.85;95813.19;5057358;28;20296;-65
2022/12/04 01:23:37;;;;;;;7.23;6.53;;;;;;;7.22;68.81;95814.66;5045025;28;20190;-65
2022/12/04 01:26:03;;;;;;;7.57;6.87;;;;;;;7.15;68.81;95814.25;5052750;28;20225;-65
2022/12/04 01:28:28;;;;;;;7.60;6.90;;;;;;;7.13;69.00;95820.53;5041642;28;20230;-65
2022/12/04 01:31:09;;;;;;;10.63;9.37;;;;;;;6.91;68.87;95811.63;5044695;28;20217;-65
2022/12/04 01:33:36;;;;;;;12.63;9.53;;;;;;;6.93;67.48;95807.13;5054005;28;20237;-65
2022/12/04 01:36:04;;;;;;;10.20;9.03;;;;;;;6.79;67.69;95804.66;5036553;28;20368;-65
2022/12/04 01:38:30;;;;;;;13.93;9.17;;;;;;;6.67;67.74;95816.81;5040139;28;20213;-65
2022/12/04 01:40:56;;;;;;;10.27;8.70;;;;;;;6.73;67.48;95805.94;5045488;28;20261;-65
2022/12/04 01:43:22;;;;;;;11.27;9.27;;;;;;;6.64;68.02;95817.03;5039967;28;20236;-65
2022/12/04 01:45:58;;;;;;;12.43;9.00;;;;;;;6.60;67.94;95818.19;5037919;28;20222;-65
2022/12/04 01:48:34;;;;;;;9.97;7.90;;;;;;;6.50;68.56;95815.41;5043586;28;20216;-65
2022/12/04 01:51:21;;;;;;;11.87;8.23;;;;;;;6.51;68.86;95801.38;5040479;28;20197;-65
2022/12/04 01:53:54;;;;;;;9.87;7.90;;;;;;;6.65;68.57;95804.81;5039251;28;20183;-65
2022/12/04 01:56:24;;;;;;;7.87;7.07;;;;;;;6.60;68.82;95798.13;5037322;28;20313;-65
2022/12/04 01:58:53;;;;;;;8.20;6.90;;;;;;;6.61;68.86;95804.19;5023803;28;20223;-65
2022/12/04 02:01:19;;;;;;;7.37;6.33;;;;;;;6.76;68.97;95799.66;5022179;28;20279;-64
2022/12/04 02:03:45;;;;;;;6.43;5.83;;;;;;;6.73;69.95;95792.84;5023157;28;20235;-64
2022/12/04 02:06:11;;;;;;;6.47;5.87;;;;;;;6.76;69.74;95797.03;5021886;28;20238;-64
2022/12/04 02:08:37;;;;;;;6.23;5.63;;;;;;;6.80;69.51;95795.88;5023806;28;20217;-64
2022/12/04 02:11:08;;;;;;;7.30;6.10;;;;;;;6.83;69.26;95790.44;5036861;28;20218;-65
2022/12/04 02:13:59;;;;;;;6.37;5.43;;;;;;;6.77;69.75;95796.09;5041715;28;20722;-64
2022/12/04 02:16:38;;;;;;;6.40;5.80;;;;;;;6.77;69.64;95783.88;5040714;28;20234;-65
2022/12/04 02:19:27;;;;;;;6.63;5.93;;;;;;;6.73;69.63;95786.81;5038283;28;20280;-66
2022/12/04 02:21:55;;;;;;;9.80;6.37;;;;;;;6.74;69.02;95794.53;5056544;28;20245;-66
2022/12/04 02:24:41;;;;;;;8.03;7.03;;;;;;;6.69;69.05;95798.44;5039617;28;20225;-65
2022/12/04 02:27:40;;;;;;;9.33;7.67;;;;;;;6.67;68.57;95792.47;5050050;28;20308;-66
2022/12/04 02:30:08;;;;;;;11.07;7.97;;;;;;;6.59;68.32;95787.78;5054590;28;20230;-65
2022/12/04 02:32:40;;;;;;;7.03;6.30;;;;;;;6.46;69.13;95779.97;5043799;28;20189;-68
2022/12/04 02:35:11;;;;;;;5.77;5.27;;;;;;;6.56;69.45;95786.22;5039387;28;20463;-68
2022/12/04 02:37:41;;;;;;;5.60;5.10;;;;;;;6.60;69.96;95781.59;5044035;28;20229;-68
2022/12/04 02:40:11;;;;;;;5.53;5.03;;;;;;;6.68;69.73;95779.28;5041396;28;20225;-68
2022/12/04 02:42:41;;;;;;;4.63;4.00;;;;;;;6.76;69.59;95787.44;5045316;28;20265;-67
2022/12/04 02:45:20;;;;;;;5.03;4.53;;;;;;;6.84;69.46;95781.63;5047681;28;20233;-68
2022/12/04 02:47:46;;;;;;;4.70;4.30;;;;;;;6.76;69.62;95773.50;5039040;28;20177;-68
2022/12/04 02:50:16;;;;;;;4.23;3.83;;;;;;;6.54;70.11;95780.25;5037054;28;20193;-69
2022/12/04 02:52:48;;;;;;;5.83;4.23;;;;;;;6.75;70.10;95787.53;5030293;28;20232;-69
2022/12/04 02:55:20;;;;;;;5.07;4.60;;;;;;;6.66;70.20;95785.59;5024499;28;20222;-68
2022/12/04 02:57:50;;;;;;;4.27;3.97;;;;;;;6.63;70.38;95784.84;5023845;28;20317;-68
2022/12/04 03:00:17;;;;;;;4.20;3.80;;;;;;;6.78;69.94;95782.09;5040645;28;20229;-68
2022/12/04 03:03:12;;;;;;;4.10;3.70;;;;;;;6.83;69.51;95793.88;5044850;28;20229;-68
2022/12/04 03:05:42;;;;;;;4.13;3.83;;;;;;;6.87;69.38;95793.66;4983738;28;20232;-68
2022/12/04 03:08:14;;;;;;;4.80;3.63;;;;;;;6.91;69.04;95790.72;4985700;28;20234;-68
2022/12/04 03:10:45;;;;;;;3.60;3.30;;;;;;;6.90;68.77;95783.81;4987295;28;20239;-68
2022/12/04 03:13:16;;;;;;;3.60;3.30;;;;;;;6.90;68.95;95777.78;4984220;28;20237;-68
2022/12/04 03:16:05;;;;;;;3.73;3.43;;;;;;;6.98;68.36;95775.44;4988699;28;20250;-67
2022/12/04 03:18:36;;;;;;;5.00;3.13;;;;;;;6.96;68.14;95777.31;4983081;28;20235;-68
2022/12/04 03:21:07;;;;;;;2.83;2.63;;;;;;;6.97;68.07;95768.50;4987863;28;20345;-67
2022/12/04 03:23:38;;;;;;;2.87;2.67;;;;;;;7.04;67.56;95781.03;4986490;28;20242;-67
2022/12/04 03:26:32;;;;;;;3.40;3.10;;;;;;;6.98;67.91;95778.06;4992046;28;20314;-67
2022/12/04 03:29:10;;;;;;;2.73;2.53;;;;;;;6.98;67.86;95771.03;4989847;28;20309;-67
2022/12/04 03:31:47;;;;;;;2.97;2.63;;;;;;;6.94;67.95;95766.97;4983605;28;20223;-67
2022/12/04 03:34:23;;;;;;;3.10;2.90;;;;;;;6.87;68.05;95770.97;4990591;28;20281;-67
2022/12/04 03:36:54;;;;;;;2.90;2.70;;;;;;;6.90;67.82;95768.13;5003711;28;20901;-67
2022/12/04 03:39:25;;;;;;;2.67;2.47;;;;;;;6.94;67.73;95769.56;4987761;28;20274;-67
2022/12/04 03:42:01;;;;;;;3.30;3.00;;;;;;;6.92;67.60;95766.22;4991804;28;20222;-69
2022/12/04 03:44:38;;;;;;;2.70;2.50;;;;;;;6.90;67.85;95778.59;5045948;28;20288;-69
2022/12/04 03:47:13;;;;;;;2.90;2.60;;;;;;;6.82;67.92;95773.91;5041864;28;20225;-70
2022/12/04 03:49:45;;;;;;;2.77;2.47;;;;;;;6.93;68.09;95773.16;5031320;28;20226;-68
2022/12/04 03:52:30;;;;;;;3.00;2.50;;;;;;;6.93;67.54;95773.16;5036618;28;20221;-68
2022/12/04 03:55:23;;;;;;;3.03;2.77;;;;;;;6.88;67.78;95770.03;5032155;28;20249;-68
2022/12/04 03:57:51;;;;;;;2.70;2.50;;;;;;;6.82;67.88;95770.47;5026427;28;20227;-68
2022/12/04 04:00:19;;;;;;;2.60;2.40;;;;;;;6.93;67.59;95770.53;5021062;28;20223;-68
2022/12/04 04:02:54;;;;;;;3.13;2.83;;;;;;;6.95;67.61;95766.03;5020751;28;20230;-68
2022/12/04 04:05:21;;;;;;;2.40;2.20;;;;;;;6.99;67.29;95757.00;5026117;28;20286;-68
2022/12/04 04:07:52;;;;;;;3.50;3.20;;;;;;;6.98;67.36;95760.56;5024328;28;20256;-68
2022/12/04 04:10:21;;;;;;;3.17;2.87;;;;;;;6.96;67.62;95766.84;5023720;28;20218;-68
2022/12/04 04:24:15;;;;;;;3.13;2.83;;;;;;;6.90;67.19;95777.78;5024083;28;20248;-69
2022/12/04 04:26:46;;;;;;;3.43;2.93;;;;;;;6.93;67.48;95777.53;5024930;28;20217;-69
2022/12/04 04:29:12;;;;;;;2.97;2.77;;;;;;;6.83;67.49;95774.75;5044741;28;20220;-70
2022/12/04 04:31:55;;;;;;;2.87;2.67;;;;;;;6.91;67.62;95777.63;5043379;28;20221;-70
2022/12/04 04:34:38;;;;;;;3.30;3.00;;;;;;;6.88;67.31;95777.88;5045883;28;20228;-70
2022/12/04 04:37:10;;;;;;;3.10;2.80;;;;;;;6.94;67.20;95784.44;5057069;28;20225;-69
2022/12/04 04:39:58;;;;;;;3.10;2.77;;;;;;;6.90;67.39;95773.38;5034742;28;20240;-69
2022/12/04 04:42:26;;;;;;;3.03;2.73;;;;;;;6.90;67.66;95783.00;5042395;28;20312;-69
2022/12/04 04:45:17;;;;;;;3.50;3.20;;;;;;;6.89;67.15;95778.69;5044296;28;20190;-69
2022/12/04 04:47:54;;;;;;;3.10;2.90;;;;;;;6.87;67.04;95778.81;5026791;28;20188;-70
2022/12/04 04:50:20;;;;;;;3.00;2.80;;;;;;;6.93;66.99;95778.38;5039208;28;20216;-69
2022/12/04 04:52:50;;;;;;;4.00;2.80;;;;;;;6.88;67.03;95785.72;5041395;28;20369;-70
2022/12/04 04:55:18;;;;;;;3.20;2.90;;;;;;;6.92;67.04;95781.91;5036939;28;20228;-69
2022/12/04 04:57:44;;;;;;;3.33;3.00;;;;;;;6.85;67.16;95778.91;5055289;28;20221;-69
2022/12/04 05:00:12;;;;;;;3.80;3.50;;;;;;;6.82;66.98;95786.16;5042461;28;20218;-69
2022/12/04 05:02:38;;;;;;;3.50;3.20;;;;;;;6.82;66.96;95787.00;5035843;28;20222;-70
2022/12/04 05:05:05;;;;;;;2.90;2.60;;;;;;;6.81;67.17;95789.69;5044352;28;20228;-69
2022/12/04 05:07:30;;;;;;;3.10;2.80;;;;;;;6.83;67.26;95798.28;5053994;28;20312;-68
2022/12/04 05:09:56;;;;;;;4.00;3.37;;;;;;;6.85;67.15;95791.16;5043113;28;20587;-69
2022/12/04 05:12:21;;;;;;;3.70;3.40;;;;;;;6.80;67.20;95788.03;5039649;28;20541;-69
2022/12/04 05:14:47;;;;;;;3.57;3.27;;;;;;;6.79;67.23;95791.59;5035952;28;20182;-70
2022/12/04 05:17:12;;;;;;;4.23;3.37;;;;;;;6.79;67.42;95804.66;5033410;28;20186;-70
2022/12/04 05:19:53;;;;;;;3.97;3.60;;;;;;;6.75;67.42;95798.00;5038007;28;20233;-68
2022/12/04 05:22:29;;;;;;;4.43;3.97;;;;;;;6.73;67.17;95794.63;5040374;28;20648;-67
2022/12/04 05:24:54;;;;;;;4.40;4.00;;;;;;;6.80;67.37;95801.13;5035074;28;20320;-68
2022/12/04 05:27:21;;;;;;;4.37;3.97;;;;;;;6.85;67.09;95817.31;5030660;28;20297;-69
2022/12/04 05:29:46;;;;;;;3.63;3.33;;;;;;;6.84;67.16;95815.63;5038413;28;20220;-69
2022/12/04 05:32:12;;;;;;;4.40;4.00;;;;;;;6.82;67.35;95797.44;5040025;28;20201;-68
2022/12/04 05:34:38;;;;;;;4.87;4.10;;;;;;;6.82;67.40;95807.06;5044683;28;20252;-69
2022/12/04 05:37:03;;;;;;;4.80;4.30;;;;;;;6.80;67.35;95806.34;5028214;28;20217;-69
2022/12/04 05:39:29;;;;;;;4.07;3.67;;;;;;;6.77;67.71;95811.78;5050375;28;20221;-69
2022/12/04 05:41:54;;;;;;;4.80;4.30;;;;;;;6.76;67.48;95810.97;5038264;28;20201;-69
2022/12/04 05:44:19;;;;;;;5.27;4.77;;;;;;;6.80;67.45;95807.16;5058085;28;20212;-69
2022/12/04 05:46:45;;;;;;;4.63;4.13;;;;;;;6.72;67.74;95809.50;5037254;28;20237;-67
2022/12/04 05:49:10;;;;;;;5.53;5.03;;;;;;;6.80;67.52;95819.41;5045971;28;20261;-69
2022/12/04 05:51:36;;;;;;;5.83;5.20;;;;;;;6.76;67.54;95821.41;5040885;28;20288;-69
2022/12/04 05:54:01;;;;;;;5.70;4.80;;;;;;;6.77;67.78;95822.25;5040092;28;20281;-70
2022/12/04 05:56:27;;;;;;;6.30;5.10;;;;;;;6.72;67.72;95825.19;5040235;28;20273;-69
2022/12/04 05:58:52;;;;;;;6.43;5.17;;;;;;;6.60;68.18;95829.50;5041071;28;20217;-67
2022/12/04 06:01:22;;;;;;;7.27;5.43;;;;;;;6.71;68.14;95820.91;5042591;28;20320;-69
2022/12/04 06:03:47;;;;;;;5.70;5.10;;;;;;;6.74;67.78;95827.69;5038130;28;20225;-70
2022/12/04 06:06:22;;;;;;;6.17;5.20;;;;;;;6.80;67.97;95824.63;5042912;28;20237;-69
2022/12/04 06:08:50;;;;;;;6.47;5.10;;;;;;;6.80;67.50;95822.03;5041136;28;20187;-68
2022/12/04 06:11:22;;;;;;;5.40;4.90;;;;;;;6.78;67.74;95813.44;5047143;28;20271;-69
2022/12/04 06:13:48;;;;;;;5.13;4.63;;;;;;;6.71;67.92;95820.91;5041706;28;20229;-69
2022/12/04 06:16:16;;;;;;;5.80;5.13;;;;;;;6.84;67.72;95826.06;5032327;28;20360;-69
2022/12/04 06:18:42;;;;;;;5.17;4.67;;;;;;;6.90;67.26;95820.44;5028588;28;20271;-68
2022/12/04 06:21:09;;;;;;;5.80;4.87;;;;;;;6.91;67.13;95822.09;5042733;28;20214;-69
2022/12/04 06:23:35;;;;;;;5.40;4.90;;;;;;;6.89;67.51;95829.19;5044564;28;20292;-68
2022/12/04 06:26:05;;;;;;;4.93;4.43;;;;;;;6.56;68.46;95828.03;5043686;28;20256;-69
2022/12/04 06:28:31;;;;;;;7.33;4.57;;;;;;;6.25;70.57;95828.47;5042758;28;20229;-70
2022/12/04 06:31:06;;;;;;;5.43;4.80;;;;;;;6.55;69.62;95820.31;5041764;28;20229;-68
2022/12/04 06:33:32;;;;;;;5.43;4.93;;;;;;;6.82;68.57;95831.44;5029109;28;20228;-68
2022/12/04 06:36:02;;;;;;;5.60;5.07;;;;;;;6.73;68.55;95826.00;5044880;28;20212;-67
2022/12/04 06:38:28;;;;;;;4.77;4.37;;;;;;;6.93;68.20;95835.91;5047249;28;20194;-67
2022/12/04 06:40:54;;;;;;;5.20;4.63;;;;;;;7.04;67.51;95838.56;5041631;28;20221;-67
2022/12/04 06:43:20;;;;;;;4.47;4.07;;;;;;;7.09;67.75;95840.03;5056518;28;20226;-68
2022/12/04 06:45:45;;;;;;;5.60;4.80;;;;;;;6.92;67.97;95833.38;5042946;28;20218;-68
2022/12/04 06:48:11;;;;;;;6.67;4.97;;;;;;;7.12;67.62;95850.28;5044252;28;20217;-68
2022/12/04 06:50:36;;;;;;;6.57;5.27;;;;;;;7.12;67.53;95847.66;5047366;28;20216;-68
2022/12/04 06:53:02;;;;;;;5.77;5.03;;;;;;;7.14;67.55;95845.78;5040885;28;20206;-67
2022/12/04 06:55:27;;;;;;;5.53;5.03;;;;;;;7.28;67.32;95848.22;5044875;28;20218;-67
2022/12/04 06:57:52;;;;;;;6.07;5.20;;;;;;;7.26;67.08;95847.47;5046247;28;20244;-66
2022/12/04 07:00:18;;;;;;;5.53;5.03;;;;;;;7.24;67.55;95847.63;5042699;28;20234;-67
2022/12/04 07:02:43;;;;;;;7.63;5.60;;;;;;;7.20;67.52;95843.53;5041332;28;20306;-66
2022/12/04 07:05:09;;;;;;;7.27;6.17;;;;;;;7.11;67.72;95838.13;5041227;28;20230;-66
2022/12/04 07:07:35;;;;;;;5.60;5.10;;;;;;;7.29;67.20;95831.56;5042181;28;20240;-67
2022/12/04 07:10:02;;;;;;;5.97;4.97;;;;;;;7.32;66.87;95836.56;5038604;28;20241;-67
2022/12/04 07:12:27;;;;;;;5.50;5.00;;;;;;;7.45;66.45;95833.91;5045929;28;20257;-67
2022/12/04 07:14:52;;;;;;;5.33;4.83;;;;;;;7.55;66.09;95836.69;5045016;28;20178;-68
2022/12/04 07:17:18;;;;;;;5.63;5.03;;;;;;;7.74;65.77;95837.81;5042622;28;20205;-68
2022/12/04 07:19:43;;;;;;;6.03;5.00;;;;;;;7.77;65.22;95838.53;5046813;28;20316;-68
2022/12/04 07:22:09;;;;;;;5.43;4.93;;;;;;;7.76;65.49;95836.88;5042535;28;20316;-67
2022/12/04 07:24:36;;;;;;;5.63;5.00;;;;;;;7.80;64.94;95833.91;5043272;28;20237;-67
2022/12/04 07:27:02;;;;;;;5.57;5.07;;;;;;;7.89;64.44;95841.06;5042446;28;20219;-66
2022/12/04 07:29:28;;;;;;;7.63;5.83;;;;;;;7.74;64.86;95844.84;5041290;28;20197;-67
2022/12/04 07:31:53;;;;;;;6.23;5.63;;;;;;;7.80;65.21;95841.75;5038656;28;20229;-67
2022/12/04 07:34:19;;;;;;;6.10;5.23;;;;;;;7.95;64.84;95837.16;5043956;28;20233;-67
2022/12/04 07:36:44;;;;;;;5.70;5.17;;;;;;;7.97;64.63;95839.69;5039812;28;20229;-66
2022/12/04 07:39:10;;;;;;;6.53;5.50;;;;;;;7.93;64.75;95841.66;5030629;28;20221;-66
2022/12/04 07:41:35;;;;;;;6.27;5.43;;;;;;;8.08;64.17;95851.00;5038441;28;20331;-68
2022/12/04 07:44:00;;;;;;;5.70;5.00;;;;;;;8.13;64.20;95843.63;5040212;28;20237;-67
2022/12/04 07:46:27;;;;;;;7.47;5.50;;;;;;;8.16;63.72;95848.63;5041395;28;20222;-67
2022/12/04 07:48:57;;;;;;;6.23;5.00;;;;;;;8.27;63.31;95845.19;5046524;28;20229;-67
2022/12/04 07:51:26;;;;;;;6.90;4.90;;;;;;;8.36;63.10;95848.88;5038123;28;20234;-67
2022/12/04 07:53:52;;;;;;;5.03;4.23;;;;;;;8.44;63.03;95843.09;5040361;28;20280;-68
2022/12/04 07:56:19;;;;;;;5.40;4.90;;;;;;;8.54;62.69;95836.19;5041754;28;20276;-67
2022/12/04 07:58:45;;;;;;;6.07;5.47;;;;;;;8.47;62.20;95835.81;5044725;28;20218;-67
2022/12/04 08:01:22;;;;;;;4.80;4.30;;;;;;;8.43;62.65;95833.56;5042032;28;20230;-67
2022/12/04 08:03:50;;;;;;;5.23;4.73;;;;;;;8.45;62.13;95839.53;5040246;28;20248;-69
2022/12/04 08:06:18;;;;;;;5.23;4.67;;;;;;;8.43;62.45;95842.25;5036841;28;20236;-68
2022/12/04 08:08:43;;;;;;;5.27;4.70;;;;;;;8.49;62.11;95849.66;5042530;28;20197;-68
2022/12/04 08:11:12;;;;;;;5.50;4.40;;;;;;;8.48;62.22;95852.41;5037809;28;20245;-67
2022/12/04 08:13:38;;;;;;;5.87;4.43;;;;;;;8.55;61.21;95849.19;5039567;28;20225;-67
2022/12/04 08:16:06;;;;;;;5.10;4.60;;;;;;;8.65;61.38;95843.22;5041309;28;20232;-67
2022/12/04 08:18:31;;;;;;;5.13;4.50;;;;;;;8.65;61.22;95844.03;5037730;28;20311;-67
2022/12/04 08:21:08;;;;;;;4.23;3.83;;;;;;;8.78;61.14;95831.66;5036098;28;20258;-67
2022/12/04 08:23:34;;;;;;;5.43;4.30;;;;;;;8.88;60.71;95839.63;5040326;28;20309;-68
2022/12/04 08:26:00;;;;;;;6.67;4.13;;;;;;;8.85;60.76;95837.25;5041221;28;20304;-69
2022/12/04 08:28:26;;;;;;;4.33;3.93;;;;;;;8.84;60.50;95838.19;5044391;28;20236;-68
2022/12/04 08:30:52;;;;;;;4.60;4.10;;;;;;;8.84;60.16;95840.81;5036592;28;20222;-68
2022/12/04 08:33:17;;;;;;;4.30;3.90;;;;;;;8.92;59.29;95834.97;5037232;28;20226;-67
2022/12/04 08:35:43;;;;;;;4.20;3.80;;;;;;;8.91;59.33;95828.91;5039200;28;20213;-68
2022/12/04 08:38:08;;;;;;;5.00;3.90;;;;;;;8.96;59.36;95839.84;5056260;28;20232;-67
2022/12/04 08:40:33;;;;;;;5.17;3.90;;;;;;;9.00;59.05;95841.25;5044846;28;20237;-68
2022/12/04 08:42:59;;;;;;;4.23;3.77;;;;;;;9.00;59.62;95850.94;5020352;28;20269;-68
2022/12/04 08:45:24;;;;;;;3.77;3.37;;;;;;;9.00;59.89;95845.69;5037019;28;20257;-68
2022/12/04 08:47:50;;;;;;;5.23;4.03;;;;;;;8.93;59.83;95839.28;5034774;28;20256;-68
2022/12/04 08:50:15;;;;;;;6.70;4.07;;;;;;;9.04;59.74;95836.63;5032586;28;20181;-68
2022/12/04 08:52:40;;;;;;;5.40;4.37;;;;;;;9.01;59.38;95837.72;5037043;28;20316;-67
2022/12/04 08:55:06;;;;;;;5.70;4.63;;;;;;;8.80;60.19;95839.41;5035292;28;20226;-67
2022/12/04 08:57:32;;;;;;;5.47;4.60;;;;;;;8.95;60.10;95829.47;5030384;28;20225;-67
2022/12/04 08:59:57;;;;;;;5.23;4.40;;;;;;;9.03;60.14;95837.56;5032213;28;20239;-67
2022/12/04 09:02:22;;;;;;;5.10;4.60;;;;;;;9.08;60.22;95832.78;5035730;28;20320;-67
2022/12/04 09:04:48;;;;;;;6.77;4.60;;;;;;;9.05;59.90;95825.16;5005894;28;20229;-67
2022/12/04 09:07:13;;;;;;;3.77;2.80;;;;;;;9.10;58.22;95822.19;5033903;28;20237;-68
2022/12/04 09:09:39;;;;;;;3.77;2.90;;;;;;;9.12;56.98;95818.47;5035484;28;20311;-68
2022/12/04 09:12:04;;;;;;;3.33;2.80;;;;;;;9.16;56.98;95817.25;5035767;28;20202;-68
2022/12/04 09:14:30;;;;;;;3.40;2.77;;;;;;;9.26;56.81;95823.44;5037834;28;20185;-68
2022/12/04 09:16:55;;;;;;;5.50;2.53;;;;;;;9.25;56.21;95823.59;5031717;28;20226;-68
2022/12/04 09:19:20;;;;;;;5.13;2.83;;;;;;;9.23;56.30;95817.63;5032968;28;20313;-67
2022/12/04 09:21:46;;;;;;;3.00;2.70;;;;;;;9.29;56.02;95811.88;5048083;28;20233;-68
2022/12/04 09:24:12;;;;;;;2.60;2.40;;;;;;;9.38;55.61;95807.66;5037673;28;20372;-67
2022/12/04 09:26:38;;;;;;;3.23;2.73;;;;;;;9.33;56.46;95794.06;5041755;28;20276;-67
2022/12/04 09:29:04;;;;;;;3.87;3.20;;;;;;;9.45;56.02;95800.94;5037009;28;20222;-67
2022/12/04 09:31:31;;;;;;;3.23;2.93;;;;;;;9.36;55.98;95802.53;5036660;28;20248;-67
2022/12/04 09:33:57;;;;;;;4.87;3.27;;;;;;;9.55;56.01;95801.88;5036739;28;20306;-67
2022/12/04 09:36:23;;;;;;;2.97;2.40;;;;;;;9.36;56.36;95794.66;5041904;28;20379;-68
2022/12/04 09:38:50;;;;;;;3.03;2.73;;;;;;;9.30;57.00;95789.91;5042686;28;20275;-68
2022/12/04 09:41:37;;;;;;;3.40;2.87;;;;;;;9.52;56.62;95788.19;5037944;28;20192;-68
2022/12/04 09:44:17;;;;;;;3.83;3.23;;;;;;;9.54;56.54;95794.94;5044621;28;20236;-68
2022/12/04 09:46:51;;;;;;;6.77;4.20;;;;;;;9.62;56.60;95797.78;5042504;28;20217;-67
2022/12/04 09:49:26;;;;;;;4.20;3.43;;;;;;;9.64;56.49;95787.97;5041793;28;20312;-67
2022/12/04 09:51:56;;;;;;;3.93;3.30;;;;;;;9.70;56.24;95782.22;5042120;28;20311;-67
2022/12/04 09:54:29;;;;;;;3.53;2.90;;;;;;;9.69;56.37;95771.84;5043977;28;20217;-67
2022/12/04 09:57:02;;;;;;;3.70;3.40;;;;;;;9.34;57.10;95766.88;5043717;28;20197;-67
2022/12/04 09:59:30;;;;;;;3.90;3.50;;;;;;;9.56;56.70;95768.56;5042652;28;20182;-66
2022/12/04 10:02:11;;;;;;;4.23;3.83;;;;;;;9.59;56.81;95757.81;5053240;28;20221;-67
2022/12/04 10:04:37;;;;;;;4.00;3.60;;;;;;;9.55;56.45;95751.16;5044075;28;20240;-67
2022/12/04 10:07:27;;;;;;;4.90;3.63;;;;;;;9.55;57.06;95741.47;5042546;28;20671;-67
2022/12/04 10:09:59;;;;;;;4.67;3.77;;;;;;;9.66;56.97;95740.59;5044743;28;20229;-68
2022/12/04 10:12:52;;;;;;;4.97;4.37;;;;;;;9.67;57.70;95739.63;5039651;28;20230;-68
2022/12/04 10:15:33;;;;;;;4.47;4.07;;;;;;;9.53;58.09;95735.53;5052422;28;20299;-68
2022/12/04 10:18:11;;;;;;;4.83;3.77;;;;;;;9.69;57.62;95725.41;5039299;28;20190;-68
2022/12/04 10:21:10;;;;;;;5.43;3.90;;;;;;;9.55;57.79;95730.97;5053715;28;20220;-68
2022/12/04 10:24:00;;;;;;;6.37;4.27;;;;;;;9.68;57.66;95721.13;5002220;28;20235;-68
2022/12/04 10:26:34;;;;;;;4.37;3.97;;;;;;;9.55;57.94;95723.09;4987078;28;20230;-68
2022/12/04 10:29:05;;;;;;;4.17;3.77;;;;;;;9.71;57.36;95720.84;4982051;28;20227;-68
2022/12/04 10:31:34;;;;;;;5.37;3.70;;;;;;;9.79;57.00;95725.47;4991650;28;20300;-68
2022/12/04 10:34:15;;;;;;;4.60;4.20;;;;;;;9.72;57.30;95719.88;4982026;28;20235;-68
2022/12/04 10:36:45;;;;;;;4.40;4.00;;;;;;;9.94;57.18;95715.44;4999057;28;20231;-68
2022/12/04 10:39:23;;;;;;;3.73;3.43;;;;;;;9.98;56.30;95700.25;4987249;28;20247;-68
2022/12/04 10:42:14;;;;;;;3.57;3.17;;;;;;;10.10;56.03;95700.06;4980399;28;20254;-69
2022/12/04 10:44:40;;;;;;;5.17;3.90;;;;;;;10.02;56.00;95699.84;4990510;28;20219;-68
2022/12/04 10:47:09;;;;;;;4.63;4.23;;;;;;;10.03;56.21;95704.16;4979804;28;20246;-68
2022/12/04 10:49:36;;;;;;;4.90;3.63;;;;;;;9.97;55.85;95699.44;4987371;28;20237;-68
2022/12/04 10:52:04;;;;;;;5.03;3.77;;;;;;;9.91;56.04;95700.75;4990394;28;20359;-69
2022/12/04 10:54:47;;;;;;;4.13;3.70;;;;;;;9.79;55.72;95711.50;4984361;28;20234;-69
2022/12/04 10:57:14;;;;;;;4.40;3.37;;;;;;;9.84;55.87;95706.69;4987135;28;20261;-66
2022/12/04 10:59:49;;;;;;;4.00;3.70;;;;;;;9.88;55.17;95700.22;5023679;28;20213;-69
2022/12/04 11:02:29;;;;;;;4.03;3.73;;;;;;;9.95;55.13;95714.50;5040045;28;20233;-69
2022/12/04 11:04:58;;;;;;;4.07;3.77;;;;;;;9.81;54.84;95709.56;5057067;28;20230;-67
2022/12/04 11:07:27;;;;;;;4.27;3.87;;;;;;;9.78;55.19;95705.41;5034438;28;20238;-67
2022/12/04 11:10:02;;;;;;;5.10;4.40;;;;;;;9.89;55.11;95691.34;5025311;28;20315;-68
2022/12/04 11:12:29;;;;;;;5.27;4.77;;;;;;;10.09;54.23;95690.47;5024378;28;20264;-67
2022/12/04 11:15:05;;;;;;;6.70;3.70;;;;;;;10.12;54.29;95694.66;5022558;28;20281;-67
2022/12/04 11:17:30;;;;;;;5.83;4.47;;;;;;;9.98;54.37;95693.22;5021809;28;20189;-68
2022/12/04 11:20:29;;;;;;;4.43;4.03;;;;;;;9.75;55.10;95696.97;5036948;28;20224;-67
2022/12/04 11:22:57;;;;;;;4.07;3.67;;;;;;;9.68;55.50;95700.09;5047378;28;20232;-67
2022/12/04 11:25:26;;;;;;;4.63;4.20;;;;;;;9.63;55.28;95696.22;5043907;28;20379;-67
2022/12/04 11:27:54;;;;;;;4.83;4.33;;;;;;;9.66;55.22;95703.81;5048714;28;20236;-67
2022/12/04 11:30:33;;;;;;;3.70;3.37;;;;;;;9.46;55.90;95708.09;5060338;28;20229;-67
2022/12/04 11:33:00;;;;;;;4.10;3.70;;;;;;;9.32;56.49;95700.56;5044562;28;20200;-67
2022/12/04 11:35:29;;;;;;;4.70;4.10;;;;;;;9.26;56.60;95702.72;5042983;28;20181;-68
2022/12/04 11:38:03;;;;;;;4.70;4.30;;;;;;;9.41;56.56;95699.78;5045973;28;20343;-68
2022/12/04 11:40:29;;;;;;;5.87;4.00;;;;;;;9.52;55.83;95688.41;5066217;28;20327;-67
2022/12/04 11:43:16;;;;;;;4.47;3.93;;;;;;;9.49;56.25;95687.69;5043884;28;20271;-67
2022/12/04 11:46:00;;;;;;;4.87;4.10;;;;;;;9.58;55.86;95696.59;5064211;28;20681;-68
2022/12/04 11:48:29;;;;;;;3.87;3.57;;;;;;;9.35;56.59;95700.28;5044907;28;20228;-67
2022/12/04 11:50:57;;;;;;;4.73;4.23;;;;;;;9.44;56.48;95705.63;5045080;28;20193;-67
2022/12/04 11:53:28;;;;;;;4.73;4.30;;;;;;;9.55;56.02;95709.97;5046039;28;20639;-69
2022/12/04 11:56:12;;;;;;;4.73;4.33;;;;;;;9.42;56.75;95714.59;5040805;28;20225;-69
2022/12/04 11:58:50;;;;;;;5.70;5.07;;;;;;;9.57;56.38;95704.59;5039687;28;20281;-69
2022/12/04 12:01:42;;;;;;;6.67;4.87;;;;;;;9.58;56.49;95696.59;5039168;28;20239;-69
2022/12/04 12:04:45;;;;;;;6.07;4.50;;;;;;;9.49;56.87;95708.69;5041612;28;20237;-69
2022/12/04 12:07:11;;;;;;;5.00;4.50;;;;;;;9.70;56.10;95708.69;5040909;28;20229;-69